Home > Products > Valid Products > TAF

000
FTUS41 KBTV 181700
TAFMSS
TAF
KMSS 181728Z 1818/1918 07009KT P6SM BKN150 BKN200
     FM190000 22005KT P6SM -SHRA OVC050
     FM190400 25004KT P6SM -SHRA OVC035
     FM190900 27009KT P6SM -SHRA OVC035
     FM191400 32014G20KT P6SM BKN035=



000
FTUS41 KBTV 181700
TAFMPV
TAF
KMPV 181728Z 1818/1918 16010G17KT P6SM BKN150 BKN200
     FM190300 19005KT P6SM OVC080
     FM190500 VRB03KT P6SM -SHRA OVC035
     FM191400 31014KT P6SM BKN035=



000
FTUS41 KBTV 181700
TAFBTV
TAF
KBTV 181728Z 1818/1918 19014G20KT P6SM BKN150 BKN200
     FM190200 19008KT P6SM OVC080
     FM190400 19007KT P6SM -SHRA OVC040
     FM190800 27007KT P6SM -SHRA OVC035
     FM191400 33012KT P6SM BKN035=



000
FTUS41 KBTV 181700
TAFSLK
TAF
KSLK 181728Z 1818/1918 22009KT P6SM BKN150 BKN200
     FM190000 24004KT P6SM OVC070
     FM190300 24004KT P6SM -SHRA OVC035
     FM190900 26006KT 5SM -SHSN OVC025
     FM191400 31009KT P6SM BKN025 BKN035=



000
FTUS41 KBTV 181100
TAFBTV
TAF
KBTV 181138Z 1812/1912 13006KT P6SM BKN200
     FM181400 17010G18KT P6SM BKN150
     FM190500 19006KT P6SM VCSH OVC040
     FM190800 22004KT P6SM VCSH OVC025
     FM191000 25006KT P6SM BKN040=



000
FTUS41 KBTV 181100
TAFSLK
TAF
KSLK 181138Z 1812/1912 16006KT P6SM BKN150
     FM190100 22006KT P6SM -SHRA BKN035
     FM190600 26007KT P6SM -SHRA BKN025
     FM190800 27008KT 4SM -SHSNRA BKN015
     FM191000 27009KT 2SM -SHSN BKN025=



000
FTUS41 KBTV 181100
TAFMSS
TAF
KMSS 181138Z 1812/1912 18008KT P6SM BKN150
     FM182200 22006KT P6SM VCSH OVC070
     FM190000 24005KT P6SM OVC040
     FM190200 25006KT P6SM -SHRA OVC025
     FM190800 28007KT P6SM -SHRA OVC015
     FM191100 28011KT P6SM BKN015=



000
FTUS41 KBTV 181100
TAFMPV
TAF
KMPV 181138Z 1812/1912 22005KT P6SM BKN200
     FM182000 17010KT P6SM BKN150
     FM190200 18006KT P6SM BKN090
     FM190500 21006KT P6SM -SHRA OVC035=



000
FTUS41 KBTV 180500
TAFBTV
TAF
KBTV 180537Z 1806/1906 15008KT P6SM SKC
     FM181300 17012G20KT P6SM BKN200
     FM190200 18009KT P6SM VCSH OVC050=



000
FTUS41 KBTV 180500
TAFSLK
TAF
KSLK 180537Z 1806/1906 00000KT P6SM SKC
     FM181100 17006KT P6SM BKN200
     FM190000 22006KT P6SM VCSH OVC040
     FM190400 25007KT P6SM -SHRA BKN025=



000
FTUS41 KBTV 180500
TAFMPV
TAF
KMPV 180537Z 1806/1906 19006KT P6SM SKC
     FM181700 17010KT P6SM BKN250
     FM190400 19006KT P6SM VCSH OVC040=



000
FTUS41 KBTV 180500
TAFMSS
TAF
KMSS 180537Z 1806/1906 16004KT P6SM SCT200
     FM180800 15006KT P6SM BKN200
     FM190000 25005KT P6SM VCSH OVC045
     FM190300 24005KT P6SM -SHRA OVC025=



000
FTUS41 KBTV 172300
TAFSLK
TAF
KSLK 172325Z 1800/1824 18009KT P6SM BKN250
     FM181400 20010G18KT P6SM SCT150 BKN200
     FM182200 21009KT P6SM BKN130 OVC200=



000
FTUS41 KBTV 172300
TAFMSS
TAF
KMSS 172325Z 1800/1824 05008KT P6SM BKN250
     FM181400 16012G20KT P6SM SCT150 BKN200
     FM182200 23009KT P6SM OVC070=



000
FTUS41 KBTV 172300
TAFBTV
TAF
KBTV 172325Z 1800/1824 17005KT P6SM BKN250
     FM181400 18012G20KT P6SM SCT150 BKN200
     FM182200 19012G20KT P6SM BKN150 OVC200=



000
FTUS41 KBTV 172300
TAFMPV
TAF
KMPV 172325Z 1800/1824 17005KT P6SM BKN250
     FM181400 17009KT P6SM SCT150 BKN200
     FM182200 17010G18KT P6SM BKN130 OVC200=



000
FTUS41 KBTV 171700
TAFMSS
TAF
KMSS 171730Z 1718/1818 05010G16KT P6SM SCT200
     FM180100 VRB06KT P6SM SCT150 BKN180
     FM181400 14012G20KT P6SM SCT120 BKN150=



000
FTUS41 KBTV 171700
TAFSLK
TAF
KSLK 171730Z 1718/1818 16008KT P6SM SCT200
     FM172300 VRB03KT P6SM SCT200
     FM181400 19010G20KT P6SM SCT150 BKN200=



000
FTUS41 KBTV 171700
TAFBTV
TAF
KBTV 171730Z 1718/1818 18009G17KT P6SM SCT200
     FM172300 16006KT P6SM SCT200
     FM181400 17012G20KT P6SM SCT170 BKN200=



000
FTUS41 KBTV 171700
TAFMPV
TAF
KMPV 171730Z 1718/1818 18008KT P6SM SCT200
     FM180000 17003KT P6SM BKN200
     FM181500 16010G18KT P6SM SCT200 BKN250=



000
FTUS41 KBTV 171100
TAFMSS
TAF
KMSS 171133Z 1712/1812 08006KT P6SM SCT200
     FM171600 08012KT P6SM SCT200=



000
FTUS41 KBTV 171100
TAFSLK
TAF
KSLK 171133Z 1712/1812 00000KT P6SM SKC
     FM171300 15005KT P6SM SCT200
     FM171700 17010G18KT P6SM SCT200=



000
FTUS41 KBTV 171100
TAFBTV
TAF
KBTV 171133Z 1712/1812 VRB05KT P6SM SKC
     FM171400 14006KT P6SM SCT200
     FM171800 17012G20KT P6SM SCT200=



000
FTUS41 KBTV 171100
TAFMPV
TAF
KMPV 171133Z 1712/1812 00000KT P6SM SKC
     FM171400 14004KT P6SM SCT200
     FM171800 17010G18KT P6SM SCT200=



000
FTUS41 KBTV 170500
TAFBTV
TAF
KBTV 170520Z 1706/1806 VRB05KT P6SM SKC
     FM171400 14006KT P6SM SCT200
     FM171800 17012G20KT P6SM SCT200=



000
FTUS41 KBTV 170500
TAFSLK
TAF
KSLK 170520Z 1706/1806 00000KT P6SM SKC
     FM171300 15005KT P6SM SCT200
     FM171700 17010G18KT P6SM SCT200=



000
FTUS41 KBTV 170500
TAFMSS
TAF
KMSS 170520Z 1706/1806 VRB05KT P6SM SKC
     FM171200 08006KT P6SM SCT200
     FM171600 08012KT P6SM SCT200=



000
FTUS41 KBTV 170500
TAFMPV
TAF
KMPV 170520Z 1706/1806 00000KT P6SM SKC
     FM171400 14004KT P6SM SCT200
     FM171800 17010G18KT P6SM SCT200=



000
FTUS41 KBTV 162300
TAFBTV
TAF
KBTV 162328Z 1700/1724 VRB03KT P6SM SKC
     FM171400 14006KT P6SM SCT200
     FM171800 17012G20KT P6SM SCT200=



000
FTUS41 KBTV 162300
TAFSLK
TAF
KSLK 162328Z 1700/1724 00000KT P6SM SKC
     FM171300 15005KT P6SM SCT200
     FM171700 17010G18KT P6SM SCT200=



000
FTUS41 KBTV 162300
TAFMPV
TAF
KMPV 162328Z 1700/1724 33004KT P6SM SKC
     FM170300 00000KT P6SM SKC
     FM171400 14004KT P6SM SCT200
     FM171800 17010G18KT P6SM SCT200=



000
FTUS41 KBTV 162300
TAFMSS
TAF
KMSS 162328Z 1700/1724 27006KT P6SM SKC
     FM170100 VRB03KT P6SM SKC
     FM171200 08006KT P6SM SCT200
     FM171600 08012KT P6SM SCT200=



000
FTUS41 KBTV 162200 AAA
TAFBTV
TAF AMD
KBTV 162228Z 1622/1718 03008KT P6SM SKC
     FM170000 VRB03KT P6SM SKC
     FM171400 14006KT P6SM SCT250=



000
FTUS41 KBTV 162200 AAA
TAFMPV
TAF AMD
KMPV 162211Z 1622/1718 33007KT P6SM SKC
     FM170000 VRB02KT P6SM SKC
     FM171400 14004KT P6SM SCT250=



000
FTUS41 KBTV 161700
TAFMSS
TAF
KMSS 161720Z 1618/1718 28010KT P6SM FEW045
     FM170000 VRB03KT P6SM SKC
     FM171200 08008KT P6SM SCT250=



000
FTUS41 KBTV 161700
TAFSLK
TAF
KSLK 161720Z 1618/1718 29008KT P6SM BKN040
     FM170000 VRB02KT P6SM SKC
     FM171400 15005KT P6SM SCT250=



000
FTUS41 KBTV 161700
TAFBTV
TAF
KBTV 161720Z 1618/1718 35012KT P6SM FEW045
     FM170000 VRB03KT P6SM SKC
     FM171400 14006KT P6SM SCT250=



000
FTUS41 KBTV 161700
TAFMPV
TAF
KMPV 161720Z 1618/1718 33013G22KT P6SM SCT040
     FM170000 VRB02KT P6SM SKC
     FM171400 14004KT P6SM SCT250=



000
FTUS41 KBTV 161100
TAFBTV
TAF
KBTV 161135Z 1612/1712 32012G20KT P6SM BKN035
     FM161700 33010KT P6SM SKC
     FM162300 VRB06KT P6SM SKC=



000
FTUS41 KBTV 161100
TAFMSS
TAF
KMSS 161135Z 1612/1712 29010G18KT P6SM SCT025
      TEMPO 1612/1614 BKN025
     FM161600 29010KT P6SM SKC
     FM162300 VRB06KT P6SM SKC=



000
FTUS41 KBTV 161100
TAFSLK
TAF
KSLK 161135Z 1612/1712 30008G18KT P6SM SCT020
     FM161400 29010G18KT P6SM SKC
     FM162300 VRB06KT P6SM SKC=



000
FTUS41 KBTV 161100
TAFMPV
TAF
KMPV 161135Z 1612/1712 33012G20KT P6SM BKN035
      TEMPO 1612/1614 BKN025
     FM161700 32010KT P6SM SKC
     FM162200 VRB06KT P6SM SKC=



000
FTUS41 KBTV 161000 AAA
TAFMPV
TAF AMD
KMPV 161040Z 1611/1706 32015G25KT 2SM -SN BKN020 OVC030
     FM162200 32010KT P6SM SKC=



000
FTUS41 KBTV 160900 AAB
TAFSLK
TAF AMD
KSLK 160905Z 1609/1706 30007KT P6SM BKN020
      TEMPO 1609/1613 3SM -SN BR BKN015
     FM161300 28010G17KT P6SM SCT025
     FM162100 26007KT P6SM SKC=



000
FTUS41 KBTV 160800 AAA
TAFSLK
TAF AMD
KSLK 160803Z 1608/1706 30005KT 1SM -SN BR BKN015
     FM161300 28010G17KT P6SM SCT025
     FM162100 26007KT P6SM SKC=



000
FTUS41 KBTV 160500 CCA
TAFSLK
TAF COR
KSLK 160542Z 1606/1706 29010G18KT 3SM -SHSN BR OVC020
     FM160700 27010G18KT P6SM BKN020
     FM161300 28010G17KT P6SM SCT025
     FM162100 26007KT P6SM SKC=



000
FTUS41 KBTV 160500 CCA
TAFMPV
TAF COR
KMPV 160536Z 1606/1706 32014G24KT 3SM -SN BR SCT005 OVC025
     FM160700 32012G20KT P6SM BKN025
     FM161100 32015G25KT P6SM SCT025
     FM162200 32010KT P6SM SKC=



000
FTUS41 KBTV 160500
TAFMPV
TAF
KMPV 160531Z 1606/1706 32014G24KT 1 1/2SM -SN BR SCT005 OVC010
     FM160700 32012G20KT P6SM BKN025
     FM161100 32015G25KT P6SM SCT025
     FM162200 32010KT P6SM SKC=



000
FTUS41 KBTV 160500
TAFBTV
TAF
KBTV 160531Z 1606/1706 32012G20KT P6SM BKN035
     FM161200 32014G23KT P6SM SCT035
     FM162000 33010KT P6SM SKC=



000
FTUS41 KBTV 160500
TAFMSS
TAF
KMSS 160531Z 1606/1706 30012G20KT P6SM SCT025 BKN035
      TEMPO 1606/1608 BKN025
     FM161100 27010G18KT P6SM SCT035
     FM162100 26008KT P6SM SKC=



000
FTUS41 KBTV 160500
TAFSLK
TAF
KSLK 160531Z 1606/1706 29010G18KT 2SM -SHSN BR OVC020
     FM160800 27010G18KT P6SM BKN020
     FM161300 28010G17KT P6SM SCT025
     FM162100 26007KT P6SM SKC=



000
FTUS41 KBTV 160500 AAB
TAFMSS
TAF AMD
KMSS 160506Z 1605/1624 30012G20KT P6SM SCT025 BKN035
      TEMPO 1605/1608 BKN025
     FM161000 27010G18KT P6SM SCT035
     FM162100 26008KT P6SM SKC=



000
FTUS41 KBTV 160500 AAA
TAFMPV
TAF AMD
KMPV 160504Z 1605/1624 32010G18KT 1SM -SN BR BKN005 OVC015
     FM160600 32010G18KT 5SM -SHSN OVC015
     FM160800 32012G20KT P6SM BKN025
     FM161300 32015G25KT P6SM SCT025
     FM162100 32010KT P6SM SKC=



000
FTUS41 KBTV 160500 AAB
TAFBTV
TAF AMD
KBTV 160503Z 1605/1624 32012KT P6SM BKN035
     FM161300 32014G23KT P6SM SCT035
     FM162000 33010KT P6SM SKC=



000
FTUS41 KBTV 160400 AAA
TAFSLK
TAF AMD
KSLK 160400Z 1604/1624 27009G17KT 4SM -SN BR SCT009 OVC020
      TEMPO 1604/1606 2SM -SN BR BKN009
     FM160600 27012KT 5SM -SHSN BR OVC015
     FM160900 27010KT P6SM BKN020
     FM161300 28010G17KT P6SM SCT025
     FM162100 26007KT P6SM SKC=



000
FTUS41 KBTV 160300 AAA
TAFMSS
TAF AMD
KMSS 160358Z 1604/1624 28012G20KT P6SM SCT025 BKN035
      TEMPO 1604/1608 BKN025
     FM161000 27010G18KT P6SM SCT035
     FM162100 26008KT P6SM SKC=



000
FTUS41 KBTV 160300 AAA
TAFBTV
TAF AMD
KBTV 160329Z 1603/1624 33014G22KT 2SM -SN BR SCT007 OVC012
      TEMPO 1603/1605 3/4SM -SN BR OVC007
     FM160500 33012G20KT 3SM -SN BR OVC015
     FM160600 32012KT P6SM OVC025
     FM160900 32012KT P6SM BKN035
     FM161300 32014G23KT P6SM SCT035
     FM162000 33010KT P6SM SKC=



000
FTUS41 KBTV 152300
TAFMPV
TAF
KMPV 152334Z 1600/1624 32012G22KT 5SM -RA BR SCT009 OVC015
      TEMPO 1600/1601 2SM -RASN BR BKN009
     FM160100 32010G18KT 1 1/2SM -SN BR OVC010
     FM160600 32010G18KT 5SM -SHSN OVC015
     FM160800 32012G20KT P6SM BKN025
     FM161300 32015G25KT P6SM SCT025
     FM162100 32010KT P6SM SKC=



000
FTUS41 KBTV 152300
TAFSLK
TAF
KSLK 152334Z 1600/1624 27009G17KT 2SM -SN BR SCT008 OVC015
      TEMPO 1600/1603 1SM -SN BR BKN008
     FM160500 27012KT 5SM -SHSN BR OVC015
     FM160900 27010KT P6SM BKN020
     FM161300 28010G17KT P6SM SCT025
     FM162100 26007KT P6SM SKC=



000
FTUS41 KBTV 152300
TAFMSS
TAF
KMSS 152334Z 1600/1624 28015G25KT P6SM OVC020
      TEMPO 1600/1602 4SM -SHSN BKN015
     FM160500 28012G20KT P6SM OVC025
     FM161000 27010G18KT P6SM SCT035
     FM162100 26008KT P6SM SKC=



000
FTUS41 KBTV 152300
TAFBTV
TAF
KBTV 152334Z 1600/1624 33014G22KT 2SM -SN BR SCT009 OVC015
      TEMPO 1600/1603 3/4SM -SN BR OVC009
     FM160400 33012G20KT 3SM -SN BR OVC015
     FM160600 32012KT P6SM OVC025
     FM160900 32012KT P6SM BKN035
     FM161300 32014G23KT P6SM SCT035
     FM162000 33010KT P6SM SKC=



000
FTUS41 KBTV 152200 AAC
TAFMSS
TAF AMD
KMSS 152237Z 1523/1618 28015G25KT P6SM SCT015 BKN025 OVC035
      TEMPO 1523/1601 4SM -SHSN BKN015
     FM160500 30012KT P6SM OVC025
     FM161600 32010KT P6SM SCT035=



000
FTUS41 KBTV 152100 AAB
TAFMPV
TAF AMD
KMPV 152126Z 1521/1618 32008G16KT 5SM -RA BR SCT007 OVC015
      TEMPO 1521/1601 2SM -RA BR OVC007
     FM160100 33010G18KT 3SM -SN BR OVC010
     FM160800 33010KT P6SM OVC015
     FM161700 33010KT P6SM SCT025=



000
FTUS41 KBTV 152100 AAB
TAFMSS
TAF AMD
KMSS 152115Z 1521/1618 27015G25KT 3SM -SN BR SCT009 BKN025 OVC035
      TEMPO 1521/1523 1SM -SN BR BKN009 OVC025
     FM160500 30012KT P6SM OVC025
     FM161600 32010KT P6SM SCT035=



000
FTUS41 KBTV 152100 AAC
TAFSLK
TAF AMD
KSLK 152113Z 1521/1618 25009G17KT 2SM -SN BR SCT008 OVC015
      TEMPO 1521/1523 3/4SM -SN BR BKN008
     FM152300 28012G20KT 2SM -SN BR OVC010
     FM160500 28012KT 5SM BR OVC015
     FM161700 28012KT P6SM SCT025=



000
FTUS41 KBTV 152100 AAB
TAFBTV
TAF AMD
KBTV 152112Z 1521/1618 34012G20KT 4SM -RA BR SCT015 OVC025
      TEMPO 1523/1524 2SM -RASN BR OVC015
     FM160000 32010G20KT 3SM -SN BR BKN015 OVC035
     FM160500 32012KT P6SM OVC025
     FM161600 32010KT P6SM SCT035=



000
FTUS41 KBTV 152000 AAB
TAFSLK
TAF AMD
KSLK 152029Z 1520/1618 25010G17KT 5SM -SN BR SCT008 OVC020
      TEMPO 1520/1523 2SM -SN BR BKN008
     FM152300 28012G20KT 2SM -SN BR OVC010
     FM160500 28012KT 5SM BR OVC015
     FM161700 28012KT P6SM SCT025=



000
FTUS41 KBTV 152000 AAA
TAFMPV
TAF AMD
KMPV 152014Z 1520/1618 32008G16KT 5SM -RA BR SCT008 OVC015
     FM160200 33010G18KT 3SM -SN BR OVC010
     FM160800 33010KT P6SM OVC015
     FM161700 33010KT P6SM SCT025=



000
FTUS41 KBTV 151900 AAA
TAFSLK
TAF AMD
KSLK 151916Z 1519/1618 25011G18KT 5SM -RASN BR SCT008 BKN015 OVC035
     FM152300 28012G20KT 2SM -SN BR OVC010
     FM160500 28012KT 5SM BR OVC015
     FM161700 28012KT P6SM SCT025=



000
FTUS41 KBTV 151900 AAA
TAFMSS
TAF AMD
KMSS 151911Z 1519/1618 25017G23KT 3SM -SN BR SCT009 BKN025 OVC035
      TEMPO 1519/1521 25015G25KT 1SM -SN BR BKN009 OVC025
     FM160500 30012KT P6SM OVC025
     FM161600 32010KT P6SM SCT035=



000
FTUS41 KBTV 151900 AAA
TAFBTV
TAF AMD
KBTV 151908Z 1519/1618 01010KT 5SM -RA BR SCT015 OVC035
     FM160000 32010G20KT 3SM -SN BR BKN015 OVC035
     FM160500 32012KT P6SM OVC025
     FM161600 32010KT P6SM SCT035=



    US Dept of Commerce
    National Oceanic and Atmospheric Administration
    National Weather Service
    1325 East West Highway
    Silver Spring, MD 20910
    Page Author: NWS Internet Services Team
Disclaimer
Information Quality
Credits
Glossary
Privacy Policy
Freedom of Information Act (FOIA)
About Us
Career Opportunities